createdAt,value
2018-12-04T11:16:59.387Z,13.63
2018-12-04T11:17:59.334Z,13.46
2018-12-04T11:18:59.418Z,13.32
2018-12-04T11:19:59.293Z,12.87
2018-12-04T11:21:00.316Z,12.55
2018-12-04T11:21:59.268Z,12.23
2018-12-04T11:22:59.397Z,11.93
2018-12-04T11:23:59.245Z,11.60
2018-12-04T11:24:59.328Z,11.46
2018-12-04T11:25:59.221Z,11.24
2018-12-04T11:26:59.221Z,11.20
2018-12-04T11:27:59.236Z,11.17
2018-12-04T11:28:59.197Z,11.03
2018-12-04T11:29:59.179Z,10.90
2018-12-04T11:30:59.227Z,10.75
2018-12-04T11:31:59.168Z,10.57
2018-12-04T11:32:59.281Z,10.36
2018-12-04T11:33:59.133Z,10.10
2018-12-04T11:34:59.175Z,10.11
2018-12-04T11:35:59.110Z,10.07
2018-12-04T11:36:59.131Z,10.09
2018-12-04T11:37:59.105Z,9.96
2018-12-04T11:38:59.207Z,9.86
2018-12-04T11:39:59.068Z,9.81
2018-12-04T11:40:59.170Z,9.71
2018-12-04T11:41:59.042Z,9.63
2018-12-04T11:42:59.182Z,9.63
2018-12-04T11:43:59.087Z,9.60
2018-12-04T11:44:59.015Z,9.48
2018-12-04T11:45:59.006Z,9.48
2018-12-04T11:47:00.064Z,9.42
2018-12-04T11:47:59.004Z,9.37
2018-12-04T11:48:59.045Z,9.35
2018-12-04T11:49:58.955Z,9.27
2018-12-04T11:51:00.276Z,9.27
2018-12-04T11:51:58.928Z,9.23
2018-12-04T11:52:59.029Z,9.19
2018-12-04T11:53:58.910Z,9.19
2018-12-04T11:54:58.950Z,9.23
2018-12-04T11:55:58.889Z,9.35
2018-12-04T11:56:58.924Z,9.34
2018-12-04T11:57:58.860Z,9.30
2018-12-04T11:58:58.931Z,9.23
2018-12-04T11:59:58.855Z,9.22
2018-12-04T12:00:58.965Z,9.19
2018-12-04T12:01:58.817Z,9.23
2018-12-04T12:02:58.926Z,9.10
2018-12-04T12:03:58.814Z,9.16
2018-12-04T12:04:58.789Z,8.98
2018-12-04T12:05:58.778Z,8.86
2018-12-04T12:06:58.863Z,8.70
2018-12-04T12:07:58.806Z,8.65
2018-12-04T12:08:58.861Z,8.60
2018-12-04T12:09:58.721Z,8.57
2018-12-04T12:10:58.796Z,8.49
2018-12-04T12:11:58.719Z,8.61
2018-12-04T12:12:58.763Z,8.50
2018-12-04T12:13:58.777Z,8.57
2018-12-04T12:14:58.745Z,8.50
2018-12-04T12:15:58.659Z,8.43
2018-12-04T12:16:58.697Z,8.42
2018-12-04T12:17:58.636Z,8.34
2018-12-04T12:18:58.707Z,8.28
2018-12-04T12:19:58.609Z,8.28
2018-12-04T12:20:58.649Z,8.20
2018-12-04T12:21:58.595Z,8.21
2018-12-04T12:22:58.711Z,8.25
2018-12-04T12:23:58.606Z,8.32
2018-12-04T12:24:58.674Z,8.32
2018-12-04T12:25:58.552Z,8.31
2018-12-04T12:26:58.644Z,8.28
2018-12-04T12:27:58.530Z,8.20
2018-12-04T12:28:58.653Z,8.20
2018-12-04T12:29:58.497Z,8.21
2018-12-04T12:30:58.580Z,8.21
2018-12-04T12:31:58.485Z,8.18
2018-12-04T12:32:58.547Z,8.20
2018-12-04T12:33:58.486Z,8.14
2018-12-04T12:34:59.537Z,8.13
2018-12-04T12:35:58.447Z,8.20
2018-12-04T12:36:58.496Z,8.18
2018-12-04T12:37:58.414Z,8.20
2018-12-04T12:38:58.451Z,8.21
2018-12-04T12:39:58.413Z,8.18
2018-12-04T12:40:58.427Z,8.14
2018-12-04T12:41:58.373Z,8.07
2018-12-04T12:42:59.415Z,8.09
2018-12-04T12:44:58.402Z,8.04
2018-12-04T12:45:58.323Z,7.95
2018-12-04T12:46:58.425Z,7.96
2018-12-04T12:47:58.302Z,7.89
2018-12-04T12:48:58.395Z,7.85
2018-12-04T12:49:58.294Z,7.94
2018-12-04T12:50:58.367Z,7.86
2018-12-04T12:51:58.253Z,7.84
2018-12-04T12:52:58.329Z,7.79
2018-12-04T12:53:58.237Z,7.86
2018-12-04T12:54:58.336Z,7.84
2018-12-04T12:55:58.221Z,7.74
2018-12-04T12:56:58.272Z,7.81
2018-12-04T12:57:58.203Z,7.79
2018-12-04T12:58:58.238Z,7.77
2018-12-04T12:59:58.195Z,7.79
2018-12-04T13:00:58.208Z,7.79
2018-12-04T13:01:58.156Z,7.74
2018-12-04T13:02:58.173Z,7.81
2018-12-04T13:03:58.128Z,7.81
2018-12-04T13:04:58.179Z,7.82
2018-12-04T13:05:58.103Z,7.86
2018-12-04T13:06:58.218Z,7.96
2018-12-04T13:07:58.088Z,7.88
2018-12-04T13:08:58.178Z,7.99
2018-12-04T13:09:58.085Z,7.99
2018-12-04T13:10:58.150Z,7.99
2018-12-04T13:11:58.043Z,8.07
2018-12-04T13:12:58.116Z,8.17
2018-12-04T13:13:58.018Z,8.20
2018-12-04T13:14:58.123Z,8.21
2018-12-04T13:15:57.987Z,8.32
2018-12-04T13:17:00.107Z,8.28
2018-12-04T13:17:57.971Z,8.40
2018-12-04T13:18:58.025Z,8.42
2018-12-04T13:19:57.984Z,8.45
2018-12-04T13:20:57.994Z,8.32
2018-12-04T13:21:57.935Z,8.36
2018-12-04T13:22:57.974Z,8.32
2018-12-04T13:23:57.906Z,8.22
2018-12-04T13:24:57.962Z,8.18
2018-12-04T13:25:57.891Z,8.20
2018-12-04T13:26:57.995Z,8.18
2018-12-04T13:27:57.863Z,8.17
2018-12-04T13:28:57.963Z,8.10
2018-12-04T13:29:57.921Z,8.20
2018-12-04T13:30:57.929Z,8.12
2018-12-04T13:31:57.828Z,8.20
2018-12-04T13:32:57.898Z,8.14
2018-12-04T13:33:57.789Z,8.21
2018-12-04T13:34:57.902Z,8.24
2018-12-04T13:35:57.773Z,8.31
2018-12-04T13:36:57.843Z,8.25
2018-12-04T13:37:57.748Z,8.24
2018-12-04T13:38:57.804Z,8.25
2018-12-04T13:39:57.748Z,8.34
2018-12-04T13:40:57.882Z,8.24
2018-12-04T13:41:57.703Z,8.28
2018-12-04T13:42:57.740Z,8.32
2018-12-04T13:43:57.683Z,8.42
2018-12-04T13:44:57.751Z,8.40
2018-12-04T13:45:57.668Z,8.39
2018-12-04T13:46:57.798Z,8.28
2018-12-04T13:48:00.791Z,8.46
2018-12-04T13:48:58.206Z,8.42
2018-12-04T13:49:57.635Z,8.36
2018-12-04T13:50:57.817Z,8.34
2018-12-04T13:51:57.595Z,8.37
2018-12-04T13:52:57.706Z,8.40
2018-12-04T13:53:57.586Z,8.37
2018-12-04T13:54:58.763Z,8.40
2018-12-04T13:55:57.582Z,8.31
2018-12-04T13:56:57.753Z,8.24
2018-12-04T13:57:57.549Z,8.17
2018-12-04T13:58:57.600Z,8.18
2018-12-04T13:59:57.500Z,8.09
2018-12-04T14:00:57.613Z,8.09
2018-12-04T14:01:57.486Z,8.09
2018-12-04T14:03:00.601Z,8.02
2018-12-04T14:03:57.487Z,7.94
2018-12-04T14:04:58.516Z,7.86
2018-12-04T14:05:57.457Z,7.89
2018-12-04T14:06:57.466Z,7.76
2018-12-04T14:07:57.438Z,7.73
2018-12-04T14:08:58.487Z,7.79
2018-12-04T14:09:57.412Z,7.69
2018-12-04T14:10:57.441Z,7.63
2018-12-04T14:11:57.416Z,7.69
2018-12-04T14:12:57.478Z,7.71
2018-12-04T14:13:57.358Z,7.62
2018-12-04T14:14:57.458Z,7.55
2018-12-04T14:15:57.371Z,7.48
2018-12-04T14:16:57.406Z,7.50
2018-12-04T14:17:57.304Z,7.54
2018-12-04T14:18:57.375Z,7.45
2018-12-04T14:19:57.286Z,7.37
2018-12-04T14:20:57.388Z,7.42
2018-12-04T14:21:57.259Z,7.42
2018-12-04T14:22:57.317Z,7.34
2018-12-04T14:23:57.236Z,7.34
2018-12-04T14:24:57.276Z,7.39
2018-12-04T14:25:57.264Z,7.24
2018-12-04T14:26:57.251Z,7.26
2018-12-04T14:27:57.194Z,7.24
2018-12-04T14:28:57.231Z,7.16
2018-12-04T14:29:57.203Z,7.09
2018-12-04T14:30:57.227Z,7.09
2018-12-04T14:31:57.173Z,7.01
2018-12-04T14:32:57.272Z,6.91
2018-12-04T14:33:57.122Z,6.90
2018-12-04T14:34:57.228Z,6.89
2018-12-04T14:35:57.140Z,6.81
2018-12-04T14:36:58.119Z,6.78
2018-12-04T14:37:57.107Z,6.76
2018-12-04T14:38:57.162Z,6.71
2018-12-04T14:39:57.066Z,6.61
2018-12-04T14:40:57.171Z,6.57
2018-12-04T14:41:57.066Z,6.63
2018-12-04T14:42:57.101Z,6.58
2018-12-04T14:43:57.062Z,6.57
2018-12-04T14:44:57.079Z,6.54
2018-12-04T14:45:56.988Z,6.46
2018-12-04T14:46:57.125Z,6.36
2018-12-04T14:47:56.972Z,6.36
2018-12-04T14:48:57.012Z,6.43
2018-12-04T14:49:56.943Z,6.36
2018-12-04T14:50:57.007Z,6.39
2018-12-04T14:51:56.936Z,6.40
2018-12-04T14:52:56.941Z,6.33
2018-12-04T14:53:56.916Z,6.36
2018-12-04T14:54:57.946Z,6.36
2018-12-04T14:55:56.881Z,6.39
2018-12-04T14:56:56.932Z,6.45
2018-12-04T14:57:56.863Z,6.51
2018-12-04T14:58:56.945Z,6.58
2018-12-04T14:59:56.854Z,6.53
2018-12-04T15:00:56.911Z,6.55
2018-12-04T15:01:56.843Z,6.50
2018-12-04T15:02:57.901Z,6.54
2018-12-04T15:03:56.806Z,6.48
2018-12-04T15:04:56.869Z,6.39
2018-12-04T15:05:56.875Z,6.42
2018-12-04T15:06:56.858Z,6.42
2018-12-04T15:07:56.751Z,6.38
2018-12-04T15:08:56.779Z,6.28
2018-12-04T15:09:56.731Z,6.28
2018-12-04T15:10:56.776Z,6.16
2018-12-04T15:11:56.804Z,6.24
2018-12-04T15:12:56.730Z,6.10
2018-12-04T15:13:56.769Z,6.01
2018-12-04T15:14:56.806Z,6.01
2018-12-04T15:15:56.687Z,6.01
2018-12-04T15:16:56.802Z,5.92
2018-12-04T15:17:56.642Z,5.90
2018-12-04T15:18:56.767Z,5.95
2018-12-04T15:19:56.615Z,5.88
2018-12-04T15:20:56.704Z,5.99
2018-12-04T15:21:56.605Z,5.83
2018-12-04T15:22:56.716Z,5.84
2018-12-04T15:23:56.565Z,5.83
2018-12-04T15:24:56.633Z,5.83
2018-12-04T15:25:56.552Z,5.66
2018-12-04T15:26:56.597Z,5.73
2018-12-04T15:27:56.548Z,5.69
2018-12-04T15:28:56.624Z,5.74
2018-12-04T15:29:56.494Z,5.67
2018-12-04T15:30:56.554Z,5.70
2018-12-04T15:31:56.511Z,5.60
2018-12-04T15:32:56.546Z,5.60
2018-12-04T15:33:56.453Z,5.67
2018-12-04T15:34:56.485Z,5.63
2018-12-04T15:35:56.558Z,5.65
2018-12-04T15:36:56.844Z,5.60
2018-12-04T15:37:56.419Z,5.52
2018-12-04T15:38:56.528Z,5.58
2018-12-04T15:39:56.391Z,5.58
2018-12-04T15:40:56.488Z,5.55
2018-12-04T15:41:56.355Z,5.58
2018-12-04T15:42:56.485Z,5.47
2018-12-04T15:43:56.382Z,5.42
2018-12-04T15:44:56.412Z,5.45
2018-12-04T15:45:56.329Z,5.45
2018-12-04T15:46:56.379Z,5.45
2018-12-04T15:47:56.433Z,5.44
2018-12-04T15:48:56.352Z,5.40
2018-12-04T15:49:56.292Z,5.40
2018-12-04T15:50:59.842Z,5.40
2018-12-04T15:51:56.253Z,5.38
2018-12-04T15:52:56.350Z,5.40
2018-12-04T15:53:56.232Z,5.37
2018-12-04T15:54:56.311Z,5.40
2018-12-04T15:55:56.197Z,5.26
2018-12-04T15:56:56.233Z,5.30
2018-12-04T15:57:56.194Z,5.27
2018-12-04T15:58:56.289Z,5.30
2018-12-04T15:59:56.154Z,5.27
2018-12-04T16:00:56.265Z,5.27
2018-12-04T16:01:56.134Z,5.32
2018-12-04T16:02:56.173Z,5.32
2018-12-04T16:03:56.107Z,5.30
2018-12-04T16:04:56.200Z,5.19
2018-12-04T16:05:56.098Z,5.22
2018-12-04T16:06:56.162Z,5.22
2018-12-04T16:07:56.090Z,5.14
2018-12-04T16:08:56.134Z,5.17
2018-12-04T16:09:56.052Z,5.14
2018-12-04T16:10:56.201Z,5.17
2018-12-04T16:11:56.028Z,5.12
2018-12-04T16:12:56.106Z,5.04
2018-12-04T16:13:56.006Z,4.97
2018-12-04T16:14:57.166Z,5.02
2018-12-04T16:15:55.989Z,5.06
2018-12-04T16:16:57.030Z,5.04
2018-12-04T16:17:55.988Z,4.94
2018-12-04T16:18:55.985Z,4.94
2018-12-04T16:19:55.931Z,4.94
2018-12-04T16:20:57.070Z,4.91
2018-12-04T16:21:55.906Z,4.93
2018-12-04T16:22:56.019Z,5.01
2018-12-04T16:23:55.906Z,4.87
2018-12-04T16:24:55.993Z,4.97
2018-12-04T16:25:55.858Z,4.94
2018-12-04T16:26:56.974Z,4.96
2018-12-04T16:27:55.859Z,4.94
2018-12-04T16:28:55.962Z,4.94
2018-12-04T16:29:55.816Z,4.96
2018-12-04T16:30:55.882Z,4.97
2018-12-04T16:31:55.809Z,4.99
2018-12-04T16:32:55.868Z,4.93
2018-12-04T16:33:55.815Z,4.94
2018-12-04T16:34:55.816Z,4.93
2018-12-04T16:35:55.754Z,4.91
2018-12-04T16:36:55.865Z,4.91
2018-12-04T16:37:55.729Z,4.91
2018-12-04T16:38:56.840Z,4.91
2018-12-04T16:39:55.704Z,4.93
2018-12-04T16:40:55.735Z,4.86
2018-12-04T16:41:55.676Z,4.86
2018-12-04T16:42:55.810Z,4.84
2018-12-04T16:43:55.695Z,4.90
2018-12-04T16:44:55.766Z,4.83
2018-12-04T16:45:55.648Z,4.87
2018-12-04T16:46:55.732Z,4.86
2018-12-04T16:47:55.610Z,4.86
2018-12-04T16:48:55.750Z,4.84
2018-12-04T16:49:55.594Z,4.75
2018-12-04T16:50:55.685Z,4.77
2018-12-04T16:51:55.567Z,4.69
2018-12-04T16:52:55.643Z,4.72
2018-12-04T16:53:55.575Z,4.72
2018-12-04T16:54:55.618Z,4.65
2018-12-04T16:55:55.530Z,4.64
2018-12-04T16:56:55.577Z,4.67
2018-12-04T16:57:55.504Z,4.64
2018-12-04T16:58:55.583Z,4.64
2018-12-04T16:59:55.478Z,4.57
2018-12-04T17:00:55.617Z,4.61
2018-12-04T17:01:55.465Z,4.64
2018-12-04T17:02:55.578Z,4.61
2018-12-04T17:03:55.434Z,4.71
2018-12-04T17:04:55.588Z,4.72
2018-12-04T17:05:55.412Z,4.77
2018-12-04T17:06:55.621Z,4.67
2018-12-04T17:07:55.401Z,4.64
2018-12-04T17:08:55.489Z,4.69
2018-12-04T17:09:55.383Z,4.75
2018-12-04T17:10:55.451Z,4.65
2018-12-04T17:11:55.342Z,4.67
2018-12-04T17:12:56.450Z,4.68
2018-12-04T17:13:55.336Z,4.69
2018-12-04T17:14:55.430Z,4.68
2018-12-04T17:15:55.295Z,4.69
2018-12-04T17:16:55.466Z,4.72
2018-12-04T17:17:55.274Z,4.61
2018-12-04T17:18:55.436Z,4.54
2018-12-04T17:19:55.421Z,4.61
2018-12-04T17:20:55.396Z,4.69
2018-12-04T17:21:55.235Z,4.64
2018-12-04T17:22:55.364Z,4.56
2018-12-04T17:23:55.210Z,4.54
2018-12-04T17:24:55.267Z,4.51
2018-12-04T17:25:55.200Z,4.51
2018-12-04T17:26:55.194Z,4.51
2018-12-04T17:27:55.170Z,4.50
2018-12-04T17:28:55.273Z,4.47
2018-12-04T17:29:55.177Z,4.51
2018-12-04T17:30:55.233Z,4.56
2018-12-04T17:31:55.117Z,4.49
2018-12-04T17:32:55.210Z,4.47
2018-12-04T17:33:55.206Z,4.51
2018-12-04T17:34:55.221Z,4.46
2018-12-04T17:35:55.085Z,4.49
2018-12-04T17:36:55.145Z,4.51
2018-12-04T17:37:55.057Z,4.51
2018-12-04T17:38:55.121Z,4.50
2018-12-04T17:39:55.049Z,4.47
2018-12-04T17:40:55.118Z,4.46
2018-12-04T17:41:55.009Z,4.39
2018-12-04T17:42:55.158Z,4.42
2018-12-04T17:43:55.082Z,4.42
2018-12-04T17:44:55.016Z,4.36
2018-12-04T17:45:54.994Z,4.38
2018-12-04T17:46:55.082Z,4.42
2018-12-04T17:47:54.943Z,4.38
2018-12-04T17:48:55.048Z,4.32
2018-12-04T17:49:54.920Z,4.31
2018-12-04T17:50:55.054Z,4.31
2018-12-04T17:51:54.898Z,4.24
2018-12-04T17:52:54.995Z,4.32
2018-12-04T17:53:54.875Z,4.26
2018-12-04T17:54:54.957Z,4.28
2018-12-04T17:55:54.877Z,4.29
2018-12-04T17:56:55.031Z,4.20
2018-12-04T17:57:54.832Z,4.21
2018-12-04T17:58:54.896Z,4.26
2018-12-04T17:59:54.806Z,4.21
2018-12-04T18:00:55.010Z,4.13
2018-12-04T18:01:54.783Z,4.17
2018-12-04T18:02:54.928Z,4.25
2018-12-04T18:03:54.770Z,4.11
2018-12-04T18:04:55.925Z,4.14
2018-12-04T18:05:54.780Z,4.16
2018-12-04T18:06:54.869Z,4.18
2018-12-04T18:07:54.717Z,4.17
2018-12-04T18:08:54.940Z,4.25
2018-12-04T18:09:54.716Z,4.24
2018-12-04T18:10:54.833Z,4.17
2018-12-04T18:11:54.677Z,4.14
2018-12-04T18:12:54.772Z,4.14
2018-12-04T18:13:54.644Z,4.18
2018-12-04T18:14:54.752Z,4.17
2018-12-04T18:15:54.628Z,4.11
2018-12-04T18:16:55.681Z,4.11
2018-12-04T18:17:54.604Z,4.14
2018-12-04T18:18:54.788Z,4.18
2018-12-04T18:19:54.590Z,4.11
2018-12-04T18:20:54.648Z,4.13
2018-12-04T18:21:54.574Z,4.13
2018-12-04T18:22:54.737Z,4.06
2018-12-04T18:23:54.549Z,4.00
2018-12-04T18:24:54.684Z,4.08
2018-12-04T18:25:54.522Z,4.10
2018-12-04T18:26:55.708Z,4.07
2018-12-04T18:27:54.500Z,4.06
2018-12-04T18:28:54.622Z,3.90
2018-12-04T18:29:54.464Z,3.99
2018-12-04T18:30:54.598Z,3.96
2018-12-04T18:31:54.468Z,3.95
2018-12-04T18:32:55.459Z,3.95
2018-12-04T18:33:54.437Z,3.95
2018-12-04T18:34:54.524Z,3.92
2018-12-04T18:35:54.408Z,3.90
2018-12-04T18:36:54.529Z,3.88
2018-12-04T18:37:54.378Z,3.90
2018-12-04T18:38:54.463Z,3.78
2018-12-04T18:39:54.364Z,3.82
2018-12-04T18:40:54.430Z,3.77
2018-12-04T18:41:54.354Z,3.77
2018-12-04T18:42:54.398Z,3.86
2018-12-04T18:43:54.314Z,3.74
2018-12-04T18:44:54.445Z,3.86
2018-12-04T18:45:54.291Z,3.82
2018-12-04T18:46:54.368Z,3.82
2018-12-04T18:47:54.264Z,3.89
2018-12-04T18:48:54.306Z,3.82
2018-12-04T18:49:54.245Z,3.92
2018-12-04T18:50:54.270Z,3.81
2018-12-04T18:51:54.256Z,3.89
2018-12-04T18:52:54.238Z,3.88
2018-12-04T18:53:54.212Z,3.86
2018-12-04T18:54:54.369Z,3.84
2018-12-04T18:55:54.178Z,3.84
2018-12-04T18:56:54.342Z,3.86
2018-12-04T18:57:54.178Z,3.88
2018-12-04T18:58:54.247Z,3.81
2018-12-04T18:59:54.140Z,3.75
2018-12-04T19:00:54.210Z,3.81
2018-12-04T19:01:54.129Z,3.88
2018-12-04T19:02:54.295Z,3.78
2018-12-04T19:03:54.081Z,3.86
2018-12-04T19:04:54.149Z,3.88
2018-12-04T19:05:54.064Z,3.89
2018-12-04T19:06:54.671Z,3.77
2018-12-04T19:07:54.040Z,3.75
2018-12-04T19:08:54.186Z,3.77
2018-12-04T19:09:54.027Z,3.81
2018-12-04T19:10:54.063Z,3.77
2018-12-04T19:11:54.036Z,3.86
2018-12-04T19:12:54.175Z,3.82
2018-12-04T19:13:53.980Z,3.71
2018-12-04T19:14:54.088Z,3.78
2018-12-04T19:15:53.955Z,3.74
2018-12-04T19:16:55.082Z,3.80
2018-12-04T19:17:53.945Z,3.80
2018-12-04T19:18:54.036Z,3.74
2018-12-04T19:19:53.944Z,3.77
2018-12-04T19:20:54.099Z,3.80
2018-12-04T19:21:53.896Z,3.80
2018-12-04T19:22:56.059Z,3.80
2018-12-04T19:23:53.871Z,3.77
2018-12-04T19:24:53.929Z,3.75
2018-12-04T19:25:53.838Z,3.74
2018-12-04T19:26:53.900Z,3.82
2018-12-04T19:27:53.862Z,3.77
2018-12-04T19:28:53.866Z,3.86
2018-12-04T19:29:53.792Z,3.80
2018-12-04T19:30:53.940Z,3.75
2018-12-04T19:31:53.771Z,3.78
2018-12-04T19:32:54.012Z,3.75
2018-12-04T19:33:53.751Z,3.63
2018-12-04T19:34:53.878Z,3.75
2018-12-04T19:35:53.728Z,3.68
2018-12-04T19:36:53.839Z,3.74
2018-12-04T19:37:53.742Z,3.75
2018-12-04T19:38:53.825Z,3.57
2018-12-04T19:39:53.690Z,3.63
2018-12-04T19:40:53.783Z,3.62
2018-12-04T19:41:53.662Z,3.63
2018-12-04T19:42:53.892Z,3.59
2018-12-04T19:43:56.593Z,3.67
2018-12-04T19:44:53.716Z,3.60
2018-12-04T19:45:53.614Z,3.57
2018-12-04T19:46:54.806Z,3.54
2018-12-04T19:47:53.616Z,3.52
2018-12-04T19:48:53.757Z,3.52
2018-12-04T19:49:53.585Z,3.53
2018-12-04T19:50:53.618Z,3.57
2018-12-04T19:51:53.543Z,3.54
2018-12-04T19:52:53.735Z,3.52
2018-12-04T19:53:53.519Z,3.53
2018-12-04T19:54:53.559Z,3.54
2018-12-04T19:55:53.510Z,3.53
2018-12-04T19:56:53.637Z,3.57
2018-12-04T19:57:53.478Z,3.56
2018-12-04T19:58:53.642Z,3.56
